Latest Weather Observations for Christmas Island

IDW60801

Issued at 5:23 am WST Tuesday 4 August 2020 (issued every 10 minutes, with the page automatically refreshed every 10 minutes)

About weather observations | Map of weather stations | Latest weather observations for WA | Other Formats
Station Details ID: 200790 Name: CHRISTMAS ISLAND AERO Lat: -10.45 Lon: 105.69 Height: 261.0 m
Data from the previous 72 hours. | See also: Recent months at Christmas Island
Date/Time
WST
Temp
°C
App
Temp
°C
Dew
Point
°C
Rel
Hum
%
Delta-T
°C
Wind Press
QNH
hPa
Press
MSL
hPa
Rain since
9am
mm
Dir  Spd
km/h
Gust
km/h
Spd
kts
Gust
kts
04/05:00am 23.3 23.8 20.8 86 1.6 E 19 24 10 13 1011.2 1009.8 0.0
04/04:46am 23.2 24.5 20.9 87 1.5 ENE 15 26 8 14 1010.9 - -
04/04:36am 23.1 24.5 21.0 88 1.4 E 15 28 8 15 1010.9 - -
04/04:30am 23.2 24.5 20.9 87 1.5 ENE 15 28 8 15 1010.9 1009.5 0.0
04/04:17am 23.2 23.8 21.1 88 1.4 SE 19 28 10 15 1010.7 - -
04/04:01am 23.2 23.8 21.1 88 1.4 SE 19 28 10 15 1010.8 1009.4 0.0
04/04:00am 23.1 23.7 21.0 88 1.4 SE 19 32 10 17 1010.8 1009.4 0.0
04/03:30am 23.0 23.0 20.9 88 1.4 SE 22 35 12 19 1011.1 1009.7 0.0
04/03:29am 23.1 23.5 21.0 88 1.4 SE 20 30 11 16 1011.3 - -
04/03:18am 23.1 23.6 21.2 89 1.3 SE 20 30 11 16 1011.2 1009.8 0.0
04/03:06am 23.0 23.4 20.9 88 1.4 SE 20 30 11 16 1011.4 - -
04/03:03am 23.0 23.5 20.9 88 1.4 SE 19 30 10 16 1011.4 - -
04/03:00am 23.0 22.9 20.7 87 1.5 SE 22 33 12 18 1011.5 1009.9 0.0
04/02:51am 23.0 23.4 20.9 88 1.4 SE 20 30 11 16 1011.4 1010.0 0.0
04/02:50am 23.0 23.5 20.9 88 1.4 SE 19 30 10 16 1011.4 1010.0 0.0
04/02:49am 23.0 23.5 20.9 88 1.4 SE 19 30 10 16 1011.4 1010.0 0.0
04/02:36am 22.9 23.2 20.8 88 1.4 SE 20 30 11 16 1011.6 1010.2 0.0
04/02:30am 22.9 23.4 20.8 88 1.4 SE 19 28 10 15 1011.6 1010.2 0.0
04/02:23am 23.0 23.2 20.5 86 1.6 SE 20 28 11 15 1011.9 - -
04/02:12am 22.9 23.0 20.4 86 1.6 SE 20 28 11 15 1012.1 - -
04/02:08am 23.0 23.2 20.5 86 1.6 SE 20 28 11 15 1012.0 1010.5 0.0
04/02:00am 22.9 23.0 20.4 86 1.6 SE 20 28 11 15 1012.1 1010.6 0.0
04/01:59am 22.9 23.0 20.4 86 1.6 SE 20 28 11 15 1012.1 1010.6 0.0
04/01:57am 22.9 23.0 20.4 86 1.6 SE 20 28 11 15 1012.1 - -
04/01:42am 22.9 23.0 20.4 86 1.6 SE 20 28 11 15 1012.1 1010.6 0.0
04/01:30am 23.1 23.0 20.8 87 1.5 SE 22 30 12 16 1012.1 1010.6 0.0
04/01:04am 23.2 23.1 20.7 86 1.6 SE 22 32 12 17 1012.5 - -
04/01:00am 23.0 22.8 20.5 86 1.6 SE 22 32 12 17 1012.4 1010.9 0.0
04/12:59am 23.0 22.7 20.3 85 1.8 SE 22 32 12 17 1012.5 - -
04/12:51am 23.1 22.9 20.6 86 1.6 SE 22 32 12 17 1012.5 1011.0 0.0
04/12:50am 23.2 23.1 20.7 86 1.6 SE 22 32 12 17 1012.5 1011.0 0.0
04/12:46am 23.1 22.8 20.4 85 1.8 SE 22 32 12 17 1012.5 1011.0 0.0
04/12:30am 23.2 23.1 20.7 86 1.6 SE 22 32 12 17 1012.5 1011.0 0.0
04/12:08am 23.1 23.2 20.4 85 1.8 SE 20 32 11 17 1012.6 - -
04/12:02am 23.1 22.7 20.2 84 1.9 SE 22 30 12 16 1012.6 - -
04/12:00am 23.1 22.8 20.4 85 1.8 SE 22 32 12 17 1012.5 1011.0 0.0
 
Date/Time
WST
Temp
°C
App
Temp
°C
Dew
Point
°C
Rel
Hum
%
Delta-T
°C
Wind Press
QNH
hPa
Press
MSL
hPa
Rain since
9am
mm
Dir  Spd
km/h
Gust
km/h
Spd
kts
Gust
kts
03/11:55pm 23.1 23.2 20.4 85 1.8 SE 20 32 11 17 1012.6 1011.1 0.0
03/11:49pm 23.1 23.1 20.2 84 1.9 SE 20 30 11 16 1012.6 1011.1 0.0
03/11:30pm 23.2 22.8 20.2 83 2.0 SE 22 33 12 18 1012.8 1011.3 0.0
03/11:00pm 23.2 23.3 20.3 84 1.9 SE 20 28 11 15 1012.9 1011.5 0.0
03/10:30pm 23.3 23.4 20.4 84 1.9 SE 20 30 11 16 1012.9 1011.4 0.0
03/10:26pm 23.3 23.0 20.4 84 1.9 SE 22 32 12 17 1012.9 1011.4 0.0
03/10:23pm 23.4 23.7 20.5 84 1.9 SE 19 28 10 15 1012.7 - -
03/10:11pm 23.4 23.6 20.5 84 1.9 ESE 20 30 11 16 1012.8 1011.3 0.0
03/10:00pm 23.3 23.4 20.4 84 1.9 SE 20 30 11 16 1012.6 1011.1 0.0
03/09:30pm 23.4 24.3 20.9 86 1.7 SSE 17 28 9 15 1012.2 1010.7 0.0
03/09:16pm 23.3 23.7 20.6 85 1.8 SSE 19 30 10 16 1012.1 1010.6 0.0
03/09:02pm 23.3 23.4 20.4 84 1.9 SE 20 30 11 16 1012.0 1010.5 0.0
03/09:00pm 23.4 23.2 20.5 84 1.9 ESE 22 30 12 16 1012.0 1010.5 0.0
03/08:57pm 23.4 23.6 20.1 82 2.2 ESE 19 30 10 16 1011.7 - -
03/08:45pm 23.5 23.7 20.2 82 2.2 ESE 19 30 10 16 1011.7 1010.3 0.0
03/08:30pm 23.4 23.6 20.2 82 2.1 SE 19 28 10 15 1011.6 1010.2 0.0
03/08:14pm 23.3 23.4 19.9 81 2.2 ESE 19 30 10 16 1011.4 1010.0 0.0
03/08:02pm 23.3 23.4 19.9 81 2.2 SE 19 26 10 14 1011.1 - -
03/08:00pm 23.4 24.0 20.2 82 2.1 SE 17 24 9 13 1011.2 1009.8 0.0
03/07:51pm 23.3 23.7 19.9 81 2.2 SE 17 26 9 14 1011.1 1009.7 0.0
03/07:30pm 23.4 23.5 20.0 81 2.2 SSE 19 26 10 14 1010.9 1009.5 0.0
03/07:00pm 23.4 23.4 19.8 80 2.3 SSE 19 30 10 16 1010.5 1009.1 0.0
03/06:44pm 23.6 23.7 20.3 82 2.2 SE 20 32 11 17 1010.2 - 0.0
03/06:30pm 23.6 23.7 20.3 82 2.2 SE 20 32 11 17 1010.2 1008.7 0.0
03/06:01pm 24.0 24.3 20.5 81 2.3 SE 19 28 10 15 1010.0 - 0.0
03/06:00pm 23.8 24.1 20.3 81 2.3 SE 19 26 10 14 1010.0 1008.5 0.0
03/05:47pm 23.8 24.1 20.3 81 2.3 SE 19 30 10 16 1010.0 - 0.0
03/05:30pm 23.9 24.0 20.4 81 2.3 SE 20 30 11 16 1010.0 1008.5 0.0
03/05:16pm 24.5 24.7 20.2 77 2.8 SE 19 28 10 15 1010.0 - 0.0
03/05:00pm 24.5 24.7 20.2 77 2.8 SE 19 30 10 16 1010.0 1008.5 0.0
03/04:30pm 24.7 24.2 20.0 75 3.1 SE 22 32 12 17 1009.9 1008.4 0.0
03/04:00pm 24.8 24.5 20.3 76 3.0 SE 22 33 12 18 1010.0 1008.7 0.0
03/03:30pm 25.0 24.7 20.3 75 3.1 SE 22 32 12 17 1010.2 1008.7 0.0
03/03:00pm 24.8 24.0 20.1 75 3.1 ESE 24 37 13 20 1010.6 1009.2 0.0
03/02:30pm 24.7 24.6 20.0 75 3.1 SE 20 30 11 16 1011.2 1009.8 0.0
03/02:00pm 24.9 25.0 20.4 76 3.0 ESE 20 32 11 17 1011.5 1010.1 0.0
03/01:30pm 24.8 24.8 20.1 75 3.1 SE 20 32 11 17 1011.9 1010.4 0.0
03/01:00pm 25.8 25.3 19.9 70 3.9 ESE 22 30 12 16 1012.2 1011.0 0.0
03/12:30pm 25.1 23.8 19.0 69 3.9 ESE 24 32 13 17 1012.6 1011.1 0.0
03/12:00pm 24.8 24.0 20.1 75 3.1 ESE 24 32 13 17 1013.0 1011.5 0.0
03/11:30am 25.0 24.8 19.8 73 3.4 ESE 20 30 11 16 1013.4 1011.9 0.0
03/11:00am 24.3 23.4 19.8 76 2.9 ESE 24 33 13 18 1013.9 1012.5 0.0
03/10:30am 24.8 23.9 19.0 70 3.7 ESE 22 32 12 17 1014.0 1012.6 0.0
03/10:00am 24.9 24.6 19.5 72 3.5 ESE 20 28 11 15 1014.2 1012.8 -
03/09:30am 24.4 23.8 18.8 71 3.6 ESE 20 30 11 16 1014.0 1012.6 -
03/09:00am 24.1 23.4 18.7 72 3.5 ESE 20 28 11 15 1013.7 1012.2 -
03/08:30am 23.8 23.4 19.3 76 2.9 ESE 20 30 11 16 1013.3 1011.8 -
03/08:00am 23.4 22.4 18.9 76 2.9 ESE 22 35 12 19 1012.8 1011.3 0.4
03/07:42am 22.6 22.3 19.6 83 1.9 ESE 20 28 11 15 1012.5 - 0.4
03/07:30am 22.5 22.6 20.4 88 1.4 ESE 20 28 11 15 1012.4 1010.9 0.4
03/07:17am 22.8 23.0 20.1 85 1.8 ESE 19 30 10 16 1012.4 - 0.2
03/07:00am 22.8 22.6 19.4 81 2.2 ESE 19 28 10 15 1012.3 1010.8 0.2
03/06:30am 22.9 23.0 19.9 83 1.9 ESE 19 28 10 15 1012.3 1010.8 0.2
03/06:00am 22.8 22.7 19.6 82 2.1 ESE 19 28 10 15 1012.2 1010.7 0.2
03/05:30am 22.8 22.7 19.6 82 2.1 ESE 19 28 10 15 1012.1 1010.6 0.2
03/05:00am 22.8 22.6 19.4 81 2.2 ESE 19 32 10 17 1012.2 1010.7 0.2
03/04:30am 22.9 23.1 19.3 80 2.3 ESE 17 26 9 14 1012.3 1010.8 0.2
03/04:00am 22.8 22.4 19.0 79 2.4 ESE 19 26 10 14 1012.6 1010.9 0.2
03/03:30am 23.0 23.3 19.6 81 2.2 ESE 17 30 9 16 1012.7 1011.2 0.2
03/03:00am 23.1 23.4 19.5 80 2.3 ESE 17 26 9 14 1013.0 1011.5 0.2
03/02:30am 23.1 22.9 19.3 79 2.4 ESE 19 28 10 15 1013.2 1011.7 0.2
03/02:00am 23.4 23.4 19.8 80 2.3 ESE 19 30 10 16 1013.4 1011.9 0.2
03/01:41am 23.4 23.2 19.8 80 2.3 ESE 20 32 11 17 1013.7 - 0.2
03/01:30am 23.4 23.5 20.0 81 2.2 ESE 19 32 10 17 1013.6 1012.1 0.2
03/01:00am 23.5 23.7 20.2 82 2.2 E 19 28 10 15 1013.9 1012.5 0.2
03/12:30am 23.5 24.3 20.6 84 1.9 E 17 28 9 15 1013.9 1012.5 0.2
03/12:17am 23.5 23.8 20.4 83 2.0 ESE 19 28 10 15 1014.0 - 0.2
03/12:00am 23.5 23.8 20.4 83 2.0 E 19 30 10 16 1014.0 1012.6 0.2
 
Date/Time
WST
Temp
°C
App
Temp
°C
Dew
Point
°C
Rel
Hum
%
Delta-T
°C
Wind Press
QNH
hPa
Press
MSL
hPa
Rain since
9am
mm
Dir  Spd
km/h
Gust
km/h
Spd
kts
Gust
kts
02/11:30pm 23.5 24.1 20.2 82 2.2 ESE 17 26 9 14 1013.9 1012.5 0.2
02/11:24pm 23.5 23.7 20.2 82 2.2 ESE 19 26 10 14 1013.9 - 0.2
02/11:23pm 23.5 23.7 20.2 82 2.2 ESE 19 26 10 14 1013.9 - 0.2
02/11:22pm 23.4 23.6 20.1 82 2.2 ESE 19 28 10 15 1013.9 - 0.2
02/11:11pm 23.5 23.7 20.2 82 2.2 ESE 19 26 10 14 1013.9 1012.5 0.2
02/11:00pm 23.4 23.4 20.2 82 2.1 ESE 20 28 11 15 1013.9 1012.5 0.2
02/10:51pm 23.4 23.5 20.3 83 2.0 ESE 20 32 11 17 1014.0 - 0.2
02/10:38pm 23.4 23.5 20.3 83 2.0 ESE 20 32 11 17 1014.0 1012.6 0.2
02/10:30pm 23.5 23.7 20.6 84 1.9 ESE 20 30 11 16 1013.9 1012.5 0.2
02/10:00pm 23.6 23.9 20.3 82 2.2 ESE 19 28 10 15 1013.7 1012.2 0.2
02/09:53pm 23.6 23.9 20.3 82 2.2 ESE 19 32 10 17 1013.5 - 0.2
02/09:41pm 23.6 23.9 20.3 82 2.2 ESE 19 32 10 17 1013.5 1012.0 0.2
02/09:30pm 23.5 23.5 20.2 82 2.2 ESE 20 28 11 15 1013.3 1011.8 0.2
02/09:00pm 23.6 24.2 21.1 86 1.7 ESE 19 28 10 15 1013.0 1011.5 0.2
02/08:33pm 23.7 24.7 21.0 85 1.8 ESE 17 28 9 15 1012.8 - 0.2
02/08:30pm 23.5 23.7 20.6 84 1.9 ESE 20 30 11 16 1012.9 1011.4 0.2
02/08:20pm 23.7 24.7 21.0 85 1.8 ESE 17 28 9 15 1012.8 1011.3 0.2
02/08:00pm 23.6 23.9 20.3 82 2.2 ESE 19 26 10 14 1012.6 1011.1 0.2
02/07:31pm 23.7 24.0 20.4 82 2.2 ESE 19 28 10 15 1012.1 - 0.2
02/07:30pm 23.5 24.1 20.2 82 2.2 ESE 17 26 9 14 1012.3 1010.8 0.2
02/07:18pm 23.7 24.0 20.4 82 2.2 ESE 19 28 10 15 1012.1 1010.6 0.2
02/07:00pm 23.7 24.1 20.6 83 2.0 ESE 19 26 10 14 1012.1 1010.6 0.2
02/06:47pm 23.8 24.1 20.7 83 2.0 ESE 20 32 11 17 1011.9 1010.4 0.2
02/06:30pm 24.0 24.7 20.5 81 2.3 ESE 17 28 9 15 1011.9 1010.4 0.2
02/06:00pm 24.2 24.9 20.5 80 2.4 ESE 17 24 9 13 1011.7 1010.3 0.2
02/05:35pm 24.2 24.7 20.9 82 2.2 ESE 19 28 10 15 1011.4 - 0.2
02/05:30pm 24.1 24.6 20.8 82 2.2 ESE 19 28 10 15 1011.5 1010.1 0.2
02/05:25pm 24.4 25.2 20.7 80 2.4 ESE 17 24 9 13 1011.5 - 0.2
02/05:22pm 24.2 24.7 20.9 82 2.2 ESE 19 28 10 15 1011.4 1010.0 0.2
02/05:21pm 24.4 24.8 20.7 80 2.4 ESE 19 26 10 14 1011.5 - 0.2
02/05:17pm 24.1 24.2 20.4 80 2.4 ESE 20 28 11 15 1011.4 - 0.2
02/05:09pm 24.3 24.7 20.6 80 2.4 ESE 19 26 10 14 1011.5 1010.1 0.2
02/05:05pm 24.2 24.4 20.5 80 2.4 ESE 20 28 11 15 1011.5 1010.1 0.2
02/05:00pm 24.2 24.5 20.7 81 2.3 ESE 20 28 11 15 1011.3 1010.0 0.2
02/04:30pm 24.3 25.3 21.0 82 2.2 E 17 24 9 13 1011.2 1009.8 0.2
02/04:00pm 23.8 24.7 20.9 84 1.9 E 17 24 9 13 1011.4 1010.0 0.2
02/03:30pm 24.4 25.1 21.5 84 1.9 ESE 20 30 11 16 1011.5 1010.1 0.2
02/03:18pm 24.7 25.7 21.8 84 1.9 ESE 19 30 10 16 1011.5 1010.1 0.2
02/03:00pm 24.6 25.2 21.3 82 2.2 ESE 20 30 11 16 1011.7 1010.3 0.2
02/02:48pm 24.7 25.1 20.6 78 2.7 E 19 32 10 17 1012.0 1010.5 0.2
02/02:30pm 25.3 25.7 21.0 77 2.9 ESE 20 30 11 16 1012.5 1010.7 0.2
02/02:00pm 25.2 26.3 21.3 79 2.6 ESE 17 33 9 18 1012.6 1011.1 0.2
02/01:30pm 24.9 25.4 21.2 80 2.5 ESE 20 28 11 15 1013.0 1011.4 0.2
02/01:00pm 25.2 25.9 21.5 80 2.5 ESE 20 30 11 16 1013.4 1012.0 0.2
02/12:30pm 25.2 25.5 21.5 80 2.5 ESE 22 32 12 17 1013.9 1012.2 0.2
02/12:13pm 25.0 26.2 21.5 81 2.3 E 17 30 9 16 1014.3 - 0.0
02/12:04pm 25.0 25.9 21.5 81 2.3 E 19 30 10 16 1014.2 1012.8 0.0
02/12:02pm 24.7 25.3 21.0 80 2.5 E 19 28 10 15 1014.4 - 0.0
02/12:00pm 25.0 26.2 21.5 81 2.3 E 17 30 9 16 1014.4 1012.9 0.0
02/11:50am 24.7 25.3 21.0 80 2.5 E 19 28 10 15 1014.4 1013.0 0.0
02/11:30am 24.9 25.5 21.4 81 2.3 ESE 20 35 11 19 1014.5 1013.1 0.0
02/11:00am 24.4 25.2 21.7 85 1.8 ESE 20 30 11 16 1014.4 1013.0 0.0
02/10:30am 24.5 24.7 21.4 83 2.1 ESE 22 39 12 21 1014.5 1013.1 0.0
02/10:00am 24.3 25.0 21.6 85 1.8 ESE 20 32 11 17 1014.5 1013.0 11.0
02/09:55am 24.2 24.5 21.5 85 1.8 ESE 22 35 12 19 1014.4 - 11.0
02/09:54am 24.1 24.7 21.4 85 1.8 ESE 20 35 11 19 1014.4 - 11.0
02/09:30am 24.1 24.7 21.4 85 1.8 ESE 20 30 11 16 1014.4 1013.0 11.0
02/09:00am 24.1 25.0 21.6 86 1.7 E 19 35 10 19 1014.3 1012.9 11.0
02/08:30am 24.1 25.0 21.6 86 1.7 E 19 33 10 18 1014.0 1012.6 11.0
02/08:00am 23.6 24.7 21.9 90 1.1 E 19 35 10 19 1013.7 1012.2 11.0
02/07:58am 23.5 24.5 21.8 90 1.1 E 19 35 10 19 1013.6 1012.1 11.0
02/07:52am 23.4 24.7 21.7 90 1.1 E 17 32 9 17 1013.6 1012.1 11.0
02/07:30am 23.4 24.9 22.0 92 0.9 E 17 28 9 15 1013.3 1011.8 11.0
02/07:00am 23.1 24.3 22.1 94 0.7 E 19 35 10 19 1013.0 1011.5 11.0
02/06:57am 23.0 24.0 22.2 95 0.5 E 20 33 11 18 1012.9 - 11.0
02/06:40am 23.1 24.2 22.3 95 0.5 ESE 20 28 11 15 1012.9 - 10.8
02/06:30am 23.0 24.0 22.2 95 0.5 ESE 20 28 11 15 1012.8 1011.3 10.8
02/06:00am 22.9 23.9 22.1 95 0.5 E 20 30 11 16 1012.8 1011.3 10.2
02/05:42am 22.9 23.9 22.1 95 0.5 ESE 20 30 11 16 1012.7 - 8.0
02/05:30am 22.9 23.9 22.1 95 0.5 ESE 20 30 11 16 1012.6 1011.1 8.0
02/05:29am 22.9 23.9 22.1 95 0.5 ESE 20 30 11 16 1012.7 1011.2 8.0
02/05:00am 23.0 24.6 22.2 95 0.5 SE 17 24 9 13 1012.6 1011.1 6.0
02/04:30am 23.2 24.2 22.2 94 0.7 ESE 20 32 11 17 1012.6 1011.1 5.8
02/04:00am 23.1 24.3 22.1 94 0.7 SE 19 32 10 17 1012.9 1011.4 5.6
02/03:30am 22.8 23.7 22.0 95 0.5 ESE 20 32 11 17 1013.0 1011.5 5.6
02/03:00am 22.9 23.9 22.1 95 0.5 SE 20 30 11 16 1013.2 1011.7 5.6
02/02:30am 22.8 23.4 22.1 96 0.5 SE 22 35 12 19 1013.4 1011.9 5.6
02/02:00am 22.9 23.9 22.2 96 0.5 SE 20 33 11 18 1013.6 1012.1 5.6
02/01:30am 23.0 23.3 22.2 95 0.5 SE 24 35 13 19 1013.7 1012.2 5.6
02/01:00am 22.9 23.5 22.1 95 0.5 SE 22 32 12 17 1014.0 1012.6 5.6
02/12:30am 23.0 24.1 22.0 94 0.7 SE 19 33 10 18 1014.1 1012.7 5.6
02/12:12am 22.6 22.5 21.4 93 0.8 ESE 24 37 13 20 1014.3 - 5.6
02/12:00am 22.7 22.6 21.5 93 0.8 SE 24 37 13 20 1014.3 1012.9 5.6
 
Date/Time
WST
Temp
°C
App
Temp
°C
Dew
Point
°C
Rel
Hum
%
Delta-T
°C
Wind Press
QNH
hPa
Press
MSL
hPa
Rain since
9am
mm
Dir  Spd
km/h
Gust
km/h
Spd
kts
Gust
kts
01/11:56pm 22.6 22.6 21.6 94 0.7 ESE 24 37 13 20 1014.3 1012.9 5.6
01/11:52pm 23.0 22.3 21.8 93 0.8 ESE 28 46 15 25 1014.4 - 5.6
01/11:47pm 23.2 22.5 21.8 92 0.9 ESE 28 46 15 25 1014.2 - 5.6
01/11:40pm 23.0 22.8 22.0 94 0.7 ESE 26 46 14 25 1014.4 1013.0 5.6
01/11:34pm 23.2 22.5 21.8 92 0.9 ESE 28 46 15 25 1014.2 1012.8 5.6
01/11:30pm 23.2 22.9 21.8 92 0.9 SE 26 39 14 21 1014.2 1012.8 5.6
01/11:17pm 23.1 23.8 21.5 91 1.1 SE 20 32 11 17 1014.4 - 0.6
01/11:00pm 23.1 23.8 21.5 91 1.1 SE 20 32 11 17 1014.3 1012.9 5.4
01/10:56pm 23.1 23.8 21.5 91 1.1 SE 20 32 11 17 1014.2 1012.8 5.4
01/10:42pm 23.0 23.3 21.5 91 1.0 SE 22 35 12 19 1014.2 1012.8 5.2
01/10:33pm 23.7 24.1 21.0 85 1.8 SE 20 37 11 20 1014.1 - 0.0
01/10:30pm 23.4 24.1 21.5 89 1.3 SE 20 33 11 18 1014.2 1012.8 4.8
01/10:00pm 23.6 23.9 20.7 84 1.9 SE 20 33 11 18 1014.1 1012.7 4.8
01/09:47pm 23.5 24.0 21.2 87 1.5 SE 20 32 11 17 1013.9 - 4.8
01/09:34pm 23.5 24.0 21.2 87 1.5 SE 20 32 11 17 1013.9 1012.5 4.8
01/09:30pm 23.5 23.6 21.2 87 1.5 SE 22 32 12 17 1013.9 1012.5 4.8
01/09:00pm 23.1 23.5 21.0 88 1.4 SE 20 30 11 16 1013.6 1012.1 4.8
01/08:30pm 23.3 24.1 21.7 91 1.1 SE 20 39 11 21 1013.4 1011.9 4.8
01/08:21pm 23.8 24.9 21.9 89 1.3 SE 19 32 10 17 1012.9 - 4.8
01/08:18pm 23.6 24.3 21.5 88 1.4 SE 20 32 11 17 1012.9 - 4.8
01/08:08pm 23.8 24.8 22.1 90 1.1 SE 20 33 11 18 1012.9 1011.4 4.8
01/08:06pm 23.7 24.7 21.8 89 1.3 SE 19 32 10 17 1012.9 1011.4 4.8
01/08:00pm 23.6 23.9 21.5 88 1.4 SE 22 33 12 18 1012.9 1011.4 4.8
01/07:30pm 23.8 23.8 21.7 88 1.4 ESE 24 32 13 17 1012.6 1011.1 4.8
01/07:26pm 23.9 24.0 21.8 88 1.4 ESE 24 35 13 19 1012.6 1011.1 4.8
01/07:16pm 23.6 23.3 21.1 86 1.7 ESE 24 33 13 18 1012.4 1010.9 4.8
01/07:00pm 23.5 24.1 21.4 88 1.4 SE 20 32 11 17 1012.1 1010.6 4.8
01/06:30pm 23.4 24.2 21.7 90 1.1 SE 20 26 11 14 1012.1 1010.6 4.8
01/06:00pm 23.3 24.2 21.9 92 0.9 SE 20 32 11 17 1011.9 1010.4 4.8
01/05:30pm 23.0 24.2 22.2 95 0.5 SE 19 33 10 18 1011.5 1010.1 4.8
01/05:00pm 23.0 24.7 22.3 96 0.5 SE 17 26 9 14 1011.3 1009.9 4.8
01/04:56pm 23.0 24.7 22.3 96 0.5 SE 17 24 9 13 1011.2 - 4.8
01/04:40pm 22.9 24.5 22.2 96 0.5 SE 17 24 9 13 1011.2 1009.8 4.8
01/04:30pm 22.5 23.3 21.8 96 0.5 ESE 20 30 11 16 1011.3 1009.9 4.8
01/04:22pm 22.9 25.3 22.2 96 0.5 SE 13 20 7 11 1011.2 1009.8 4.4
01/04:14pm 23.0 25.8 22.3 96 0.5 SE 11 17 6 9 1011.1 1009.7 3.8
01/04:00pm 22.7 24.1 21.9 95 0.5 SE 17 30 9 16 1011.4 1010.1 3.6
01/03:57pm 22.6 23.9 21.6 94 0.7 ESE 17 30 9 16 1011.5 - 3.4
01/03:30pm 22.9 23.7 21.7 93 0.8 ESE 20 32 11 17 1011.6 1010.2 3.2
01/03:28pm 24.2 25.3 21.9 87 1.5 E 19 28 10 15 1011.7 - 1.4
01/03:15pm 24.1 25.2 22.0 88 1.4 ESE 19 28 10 15 1011.6 1010.2 1.4
01/03:00pm 25.0 25.6 21.3 80 2.5 ESE 20 28 11 15 1011.9 1010.4 0.0
01/02:30pm 25.4 26.3 21.9 81 2.4 ESE 20 30 11 16 1012.4 1010.9 0.0
01/02:20pm 25.7 26.5 21.4 77 2.9 E 19 26 10 14 1012.6 - 0.0
01/02:00pm 25.8 26.8 21.7 78 2.8 E 19 28 10 15 1012.7 1011.2 0.0
01/01:30pm 24.8 26.0 21.5 82 2.2 E 17 28 9 15 1013.0 1011.5 0.0
01/01:22pm 24.6 26.5 22.1 86 1.7 ESE 15 22 8 12 1013.2 - 0.0
01/01:20pm 24.5 26.0 22.0 86 1.7 ESE 17 24 9 13 1013.1 1011.6 0.0
01/01:00pm 24.4 25.7 21.7 85 1.8 ESE 17 24 9 13 1013.4 1011.9 0.0
01/12:58pm 24.4 25.7 21.7 85 1.8 ESE 17 24 9 13 1013.4 1011.9 0.0
01/12:30pm 24.0 25.8 21.9 88 1.4 ESE 15 22 8 12 1013.8 1012.2 0.0
01/12:00pm 23.6 25.7 21.7 89 1.3 SE 13 20 7 11 1014.0 1012.6 0.0
01/11:30am 23.1 25.4 21.4 90 1.1 SE 11 20 6 11 1014.5 1013.1 0.0
01/11:00am 22.9 24.9 21.5 92 0.9 SE 13 20 7 11 1014.8 1013.4 0.0
01/10:30am 23.0 24.8 21.8 93 0.8 SE 15 22 8 12 1015.0 1013.6 0.0
01/10:17am 23.1 25.1 21.5 91 1.1 SE 13 20 7 11 1015.0 1013.6 0.0
01/10:00am 23.1 23.8 21.2 89 1.3 SE 19 32 10 17 1015.0 1013.6 0.4
01/09:44am 23.0 24.1 20.5 86 1.6 ESE 15 24 8 13 1014.8 - 0.4
01/09:30am 23.0 24.1 20.5 86 1.6 ESE 15 24 8 13 1014.8 1013.4 0.4
01/09:25am 23.1 24.4 20.8 87 1.5 ESE 15 22 8 12 1014.7 1013.3 0.4
01/09:00am 22.6 23.6 21.1 91 1.0 ESE 17 30 9 16 1014.6 1013.2 0.4
01/08:30am 22.7 23.5 21.7 94 0.7 ESE 20 32 11 17 1014.2 1012.8 0.4
01/08:27am 23.1 24.0 20.8 87 1.5 E 17 22 9 12 1014.0 - 0.4
01/08:14am 23.2 24.2 21.1 88 1.4 E 17 22 9 12 1014.0 1012.6 0.4
01/08:00am 22.8 24.0 20.7 88 1.4 E 15 22 8 12 1014.0 1012.6 0.4
01/07:58am 22.8 24.7 21.3 91 1.0 E 13 24 7 13 1013.8 - 0.4
01/07:45am 22.8 24.7 21.3 91 1.0 ESE 13 24 7 13 1013.8 1012.3 0.4
01/07:30am 22.5 23.9 21.1 92 0.9 ESE 15 22 8 12 1013.7 1012.2 0.4
01/07:00am 22.5 23.4 21.5 94 0.7 ESE 19 28 10 15 1013.4 1012.0 0.4
01/06:30am 22.6 23.5 20.9 90 1.1 SE 17 28 9 15 1013.3 1011.9 0.4
01/06:23am 22.4 23.4 20.3 88 1.4 SE 15 24 8 13 1013.3 - 0.4

Other formats

Comma delimited format used in spreadsheet applications
http://www.bom.gov.au/fwo/IDW60801/IDW60801.96995.axf

JavaScript Object Notation format (JSON) in row-major order
http://www.bom.gov.au/fwo/IDW60801/IDW60801.96995.json

Data quality

Most of these data are generated automatically and are frequently updated. Quality checks on data are not normally performed. It is possible for incorrect values to appear. Refer to information at About Latest Weather Observations and please check the disclaimer before using these data.